sensor_id;sensor_type;location;lat;lon;timestamp;temperature;humidity
77467;DHT22;66564;42.482;25.548;2024-01-15T05:23:36;0.32;59.58
77467;DHT22;66564;42.482;25.548;2024-01-15T05:26:01;0.38;59.32
77467;DHT22;66564;42.482;25.548;2024-01-15T05:28:27;0.39;59.45
77467;DHT22;66564;42.482;25.548;2024-01-15T05:30:52;0.44;59.32
77467;DHT22;66564;42.482;25.548;2024-01-15T05:33:18;0.46;58.44
77467;DHT22;66564;42.482;25.548;2024-01-15T05:35:44;0.49;58.62
77467;DHT22;66564;42.482;25.548;2024-01-15T05:38:09;0.48;59.02
77467;DHT22;66564;42.482;25.548;2024-01-15T05:40:34;0.49;58.82
77467;DHT22;66564;42.482;25.548;2024-01-15T05:43:00;0.49;58.91
77467;DHT22;66564;42.482;25.548;2024-01-15T05:45:26;0.52;58.90
77467;DHT22;66564;42.482;25.548;2024-01-15T05:47:51;0.52;58.73
77467;DHT22;66564;42.482;25.548;2024-01-15T05:50:17;0.56;58.87
77467;DHT22;66564;42.482;25.548;2024-01-15T05:52:43;0.60;58.70
77467;DHT22;66564;42.482;25.548;2024-01-15T05:55:08;0.65;58.79
77467;DHT22;66564;42.482;25.548;2024-01-15T05:57:36;0.65;58.61
77467;DHT22;66564;42.482;25.548;2024-01-15T06:00:03;0.60;58.57
77467;DHT22;66564;42.482;25.548;2024-01-15T06:02:28;0.60;58.89
77467;DHT22;66564;42.482;25.548;2024-01-15T06:04:54;0.62;59.01
77467;DHT22;66564;42.482;25.548;2024-01-15T06:07:19;0.67;58.64
77467;DHT22;66564;42.482;25.548;2024-01-15T06:09:45;0.73;58.39
77467;DHT22;66564;42.482;25.548;2024-01-15T06:12:13;0.79;58.20
77467;DHT22;66564;42.482;25.548;2024-01-15T06:14:38;0.86;57.86
77467;DHT22;66564;42.482;25.548;2024-01-15T06:17:04;0.90;58.15
77467;DHT22;66564;42.482;25.548;2024-01-15T06:19:29;0.86;58.48
77467;DHT22;66564;42.482;25.548;2024-01-15T06:21:55;0.86;58.84
77467;DHT22;66564;42.482;25.548;2024-01-15T06:24:21;0.91;58.79
77467;DHT22;66564;42.482;25.548;2024-01-15T06:26:47;1.04;58.64
77467;DHT22;66564;42.482;25.548;2024-01-15T06:29:13;1.14;58.36
77467;DHT22;66564;42.482;25.548;2024-01-15T06:31:38;1.30;58.32
77467;DHT22;66564;42.482;25.548;2024-01-15T06:34:03;1.45;57.89
77467;DHT22;66564;42.482;25.548;2024-01-15T06:36:29;1.62;57.61
77467;DHT22;66564;42.482;25.548;2024-01-15T06:38:54;1.76;57.38
77467;DHT22;66564;42.482;25.548;2024-01-15T06:41:21;1.91;57.52
77467;DHT22;66564;42.482;25.548;2024-01-15T06:43:47;1.95;57.62
77467;DHT22;66564;42.482;25.548;2024-01-15T06:46:12;2.10;57.55
77467;DHT22;66564;42.482;25.548;2024-01-15T06:48:38;2.23;57.03
77467;DHT22;66564;42.482;25.548;2024-01-15T06:51:04;2.36;56.11
77467;DHT22;66564;42.482;25.548;2024-01-15T06:53:29;2.46;56.46
77467;DHT22;66564;42.482;25.548;2024-01-15T06:55:55;2.49;56.28
77467;DHT22;66564;42.482;25.548;2024-01-15T06:58:20;2.60;56.09
77467;DHT22;66564;42.482;25.548;2024-01-15T07:00:46;2.84;55.52
77467;DHT22;66564;42.482;25.548;2024-01-15T07:03:11;3.07;55.91
77467;DHT22;66564;42.482;25.548;2024-01-15T07:05:36;3.22;54.79
77467;DHT22;66564;42.482;25.548;2024-01-15T07:08:03;3.39;54.10
77467;DHT22;66564;42.482;25.548;2024-01-15T07:10:30;3.59;53.25
77467;DHT22;66564;42.482;25.548;2024-01-15T07:12:55;3.80;52.52
77467;DHT22;66564;42.482;25.548;2024-01-15T07:15:21;4.00;51.71
77467;DHT22;66564;42.482;25.548;2024-01-15T07:17:46;4.26;50.94
77467;DHT22;66564;42.482;25.548;2024-01-15T07:20:13;4.41;51.88
77467;DHT22;66564;42.482;25.548;2024-01-15T07:35:22;5.62;47.39
77467;DHT22;66564;42.482;25.548;2024-01-15T07:37:47;5.71;47.84
77467;DHT22;66564;42.482;25.548;2024-01-15T07:40:13;5.87;46.17
77467;DHT22;66564;42.482;25.548;2024-01-15T07:42:38;6.01;45.10
77467;DHT22;66564;42.482;25.548;2024-01-15T07:45:05;6.35;43.82
77467;DHT22;66564;42.482;25.548;2024-01-15T07:47:30;6.67;42.85
77467;DHT22;66564;42.482;25.548;2024-01-15T07:49:56;6.75;43.50
77467;DHT22;66564;42.482;25.548;2024-01-15T07:52:21;6.73;44.60
77467;DHT22;66564;42.482;25.548;2024-01-15T07:54:47;6.85;42.12
77467;DHT22;66564;42.482;25.548;2024-01-15T07:57:13;6.93;41.11
77467;DHT22;66564;42.482;25.548;2024-01-15T07:59:38;6.78;41.87
77467;DHT22;66564;42.482;25.548;2024-01-15T08:02:04;6.89;44.15
77467;DHT22;66564;42.482;25.548;2024-01-15T08:04:29;6.95;43.42
77467;DHT22;66564;42.482;25.548;2024-01-15T08:06:55;7.10;42.86
77467;DHT22;66564;42.482;25.548;2024-01-15T08:09:20;7.30;43.40
77467;DHT22;66564;42.482;25.548;2024-01-15T08:11:46;7.33;43.29
77467;DHT22;66564;42.482;25.548;2024-01-15T08:14:11;7.39;42.61
77467;DHT22;66564;42.482;25.548;2024-01-15T08:16:37;7.13;43.23
77467;DHT22;66564;42.482;25.548;2024-01-15T08:19:04;7.10;43.29
77467;DHT22;66564;42.482;25.548;2024-01-15T08:21:30;7.24;43.47
77467;DHT22;66564;42.482;25.548;2024-01-15T08:23:57;7.10;43.20
77467;DHT22;66564;42.482;25.548;2024-01-15T08:26:23;7.19;43.80
77467;DHT22;66564;42.482;25.548;2024-01-15T08:28:49;7.27;43.36
77467;DHT22;66564;42.482;25.548;2024-01-15T08:31:14;7.20;43.77
77467;DHT22;66564;42.482;25.548;2024-01-15T08:33:40;7.29;43.81
77467;DHT22;66564;42.482;25.548;2024-01-15T08:36:05;7.33;44.94
77467;DHT22;66564;42.482;25.548;2024-01-15T08:38:31;7.13;44.94
77467;DHT22;66564;42.482;25.548;2024-01-15T08:40:56;6.93;45.19
77467;DHT22;66564;42.482;25.548;2024-01-15T08:43:24;6.75;45.78
77467;DHT22;66564;42.482;25.548;2024-01-15T08:45:50;6.73;46.24
77467;DHT22;66564;42.482;25.548;2024-01-15T08:48:16;6.82;45.31
77467;DHT22;66564;42.482;25.548;2024-01-15T08:50:41;6.96;45.47
77467;DHT22;66564;42.482;25.548;2024-01-15T08:53:07;6.83;45.73
77467;DHT22;66564;42.482;25.548;2024-01-15T08:55:32;6.88;45.00
77467;DHT22;66564;42.482;25.548;2024-01-15T08:57:58;6.83;45.35
77467;DHT22;66564;42.482;25.548;2024-01-15T09:00:23;6.86;44.70
77467;DHT22;66564;42.482;25.548;2024-01-15T09:02:49;7.06;44.21
77467;DHT22;66564;42.482;25.548;2024-01-15T09:05:14;6.22;45.93
77467;DHT22;66564;42.482;25.548;2024-01-15T09:07:40;6.44;46.22
77467;DHT22;66564;42.482;25.548;2024-01-15T09:10:06;6.73;45.76
77467;DHT22;66564;42.482;25.548;2024-01-15T09:12:31;6.45;46.29
77467;DHT22;66564;42.482;25.548;2024-01-15T09:14:57;6.45;46.57
77467;DHT22;66564;42.482;25.548;2024-01-15T09:17:22;6.46;47.02
77467;DHT22;66564;42.482;25.548;2024-01-15T09:19:53;6.49;46.73
77467;DHT22;66564;42.482;25.548;2024-01-15T09:22:18;6.42;46.87
77467;DHT22;66564;42.482;25.548;2024-01-15T09:24:45;6.53;47.18
77467;DHT22;66564;42.482;25.548;2024-01-15T09:27:13;6.45;48.15
77467;DHT22;66564;42.482;25.548;2024-01-15T09:29:38;6.41;46.89
77467;DHT22;66564;42.482;25.548;2024-01-15T09:32:07;6.32;47.29
77467;DHT22;66564;42.482;25.548;2024-01-15T10:49:26;6.34;47.59
77467;DHT22;66564;42.482;25.548;2024-01-15T10:51:53;6.28;48.23
77467;DHT22;66564;42.482;25.548;2024-01-15T10:54:19;6.35;48.27
77467;DHT22;66564;42.482;25.548;2024-01-15T10:56:46;6.44;47.96
77467;DHT22;66564;42.482;25.548;2024-01-15T10:59:13;6.61;47.39
77467;DHT22;66564;42.482;25.548;2024-01-15T11:01:39;6.64;47.31
77467;DHT22;66564;42.482;25.548;2024-01-15T11:04:04;6.85;47.01
77467;DHT22;66564;42.482;25.548;2024-01-15T11:06:42;6.69;47.05
77467;DHT22;66564;42.482;25.548;2024-01-15T11:09:07;6.85;46.34
77467;DHT22;66564;42.482;25.548;2024-01-15T11:11:42;7.10;46.26
77467;DHT22;66564;42.482;25.548;2024-01-15T11:14:08;7.17;44.77
77467;DHT22;66564;42.482;25.548;2024-01-15T11:16:54;7.24;44.62
77467;DHT22;66564;42.482;25.548;2024-01-15T11:19:22;7.10;43.85
77467;DHT22;66564;42.482;25.548;2024-01-15T11:21:47;6.99;44.52
77467;DHT22;66564;42.482;25.548;2024-01-15T11:24:36;7.07;44.93
77467;DHT22;66564;42.482;25.548;2024-01-15T11:27:02;7.46;44.71
77467;DHT22;66564;42.482;25.548;2024-01-15T11:32:01;7.61;44.52
77467;DHT22;66564;42.482;25.548;2024-01-15T11:34:53;7.88;43.60
77467;DHT22;66564;42.482;25.548;2024-01-15T11:37:20;8.22;44.36
77467;DHT22;66564;42.482;25.548;2024-01-15T11:39:46;8.42;43.93
77467;DHT22;66564;42.482;25.548;2024-01-15T11:42:13;8.75;44.29
77467;DHT22;66564;42.482;25.548;2024-01-15T11:44:39;9.03;43.35
77467;DHT22;66564;42.482;25.548;2024-01-15T11:47:06;8.96;43.15
77467;DHT22;66564;42.482;25.548;2024-01-15T11:50:00;9.00;43.26
77467;DHT22;66564;42.482;25.548;2024-01-15T11:57:49;9.10;43.55
77467;DHT22;66564;42.482;25.548;2024-01-15T12:00:15;9.07;44.06
77467;DHT22;66564;42.482;25.548;2024-01-15T12:02:42;9.14;43.38
77467;DHT22;66564;42.482;25.548;2024-01-15T12:05:09;9.21;43.96
77467;DHT22;66564;42.482;25.548;2024-01-15T12:07:38;9.28;44.40
77467;DHT22;66564;42.482;25.548;2024-01-15T12:10:11;9.31;42.63
77467;DHT22;66564;42.482;25.548;2024-01-15T12:15:21;9.48;43.32
77467;DHT22;66564;42.482;25.548;2024-01-15T12:17:47;9.54;43.88
77467;DHT22;66564;42.482;25.548;2024-01-15T12:20:13;9.62;45.24
77467;DHT22;66564;42.482;25.548;2024-01-15T12:22:38;9.71;42.58
77467;DHT22;66564;42.482;25.548;2024-01-15T12:25:04;9.75;41.62
77467;DHT22;66564;42.482;25.548;2024-01-15T12:27:30;9.65;41.38
77467;DHT22;66564;42.482;25.548;2024-01-15T12:29:57;9.50;41.64
77467;DHT22;66564;42.482;25.548;2024-01-15T12:32:23;9.30;41.82
77467;DHT22;66564;42.482;25.548;2024-01-15T12:34:49;9.13;41.85
77467;DHT22;66564;42.482;25.548;2024-01-15T12:37:18;9.06;42.03
77467;DHT22;66564;42.482;25.548;2024-01-15T12:39:43;8.97;41.95
77467;DHT22;66564;42.482;25.548;2024-01-15T12:42:09;8.81;42.51
77467;DHT22;66564;42.482;25.548;2024-01-15T12:44:39;8.66;42.43
77467;DHT22;66564;42.482;25.548;2024-01-15T12:47:05;8.57;42.99
77467;DHT22;66564;42.482;25.548;2024-01-15T16:46:06;4.54;54.28
77467;DHT22;66564;42.482;25.548;2024-01-15T16:48:32;4.53;53.95
77467;DHT22;66564;42.482;25.548;2024-01-15T16:50:58;4.51;53.48
77467;DHT22;66564;42.482;25.548;2024-01-15T16:53:23;4.54;53.34
77467;DHT22;66564;42.482;25.548;2024-01-15T16:55:49;6.76;88.28
77467;DHT22;66564;42.482;25.548;2024-01-15T16:58:14;7.82;88.51
77467;DHT22;66564;42.482;25.548;2024-01-15T17:00:40;8.55;88.92
77467;DHT22;66564;42.482;25.548;2024-01-15T17:03:05;8.93;88.84
77467;DHT22;66564;42.482;25.548;2024-01-15T17:05:31;9.09;86.62
77467;DHT22;66564;42.482;25.548;2024-01-15T17:07:56;9.14;83.47
77467;DHT22;66564;42.482;25.548;2024-01-15T17:10:22;9.31;84.89
77467;DHT22;66564;42.482;25.548;2024-01-15T17:12:50;9.40;82.46
77467;DHT22;66564;42.482;25.548;2024-01-15T17:15:15;9.52;83.10
77467;DHT22;66564;42.482;25.548;2024-01-15T17:17:41;9.61;81.90
77467;DHT22;66564;42.482;25.548;2024-01-15T17:20:07;9.70;80.79
77467;DHT22;66564;42.482;25.548;2024-01-15T17:22:33;9.24;51.22
77467;DHT22;66564;42.482;25.548;2024-01-15T17:24:59;8.21;49.38
77467;DHT22;66564;42.482;25.548;2024-01-15T17:27:24;7.61;49.58
77467;DHT22;66564;42.482;25.548;2024-01-15T17:29:53;7.07;51.60
77467;DHT22;66564;42.482;25.548;2024-01-15T17:32:20;6.62;53.07
77467;DHT22;66564;42.482;25.548;2024-01-15T17:34:46;6.27;52.27
77467;DHT22;66564;42.482;25.548;2024-01-15T17:37:11;6.10;51.76
77467;DHT22;66564;42.482;25.548;2024-01-15T17:39:37;5.90;50.65
77467;DHT22;66564;42.482;25.548;2024-01-15T17:42:04;5.71;50.14
77467;DHT22;66564;42.482;25.548;2024-01-15T17:44:29;5.63;50.61
77467;DHT22;66564;42.482;25.548;2024-01-15T17:46:55;5.46;50.86
77467;DHT22;66564;42.482;25.548;2024-01-15T17:49:21;5.38;50.72
77467;DHT22;66564;42.482;25.548;2024-01-15T17:51:47;5.28;51.00
77467;DHT22;66564;42.482;25.548;2024-01-15T17:54:12;5.25;51.92
77467;DHT22;66564;42.482;25.548;2024-01-15T17:56:38;5.15;52.80
77467;DHT22;66564;42.482;25.548;2024-01-15T17:59:04;5.09;53.20
77467;DHT22;66564;42.482;25.548;2024-01-15T18:01:29;5.07;53.61
77467;DHT22;66564;42.482;25.548;2024-01-15T18:03:59;5.01;54.39
77467;DHT22;66564;42.482;25.548;2024-01-15T18:06:28;5.01;54.27
77467;DHT22;66564;42.482;25.548;2024-01-15T18:08:53;4.95;54.36
77467;DHT22;66564;42.482;25.548;2024-01-15T18:11:19;4.96;54.47
77467;DHT22;66564;42.482;25.548;2024-01-15T18:13:45;4.95;53.57
77467;DHT22;66564;42.482;25.548;2024-01-15T18:16:11;4.89;52.99
77467;DHT22;66564;42.482;25.548;2024-01-15T18:18:37;4.89;52.80
77467;DHT22;66564;42.482;25.548;2024-01-15T18:21:04;4.91;52.20
77467;DHT22;66564;42.482;25.548;2024-01-15T18:23:31;4.91;52.47
77467;DHT22;66564;42.482;25.548;2024-01-15T18:25:56;4.84;53.19
77467;DHT22;66564;42.482;25.548;2024-01-15T18:28:22;4.87;53.49
77467;DHT22;66564;42.482;25.548;2024-01-15T18:30:48;4.82;53.69
77467;DHT22;66564;42.482;25.548;2024-01-15T18:33:14;4.82;53.17
77467;DHT22;66564;42.482;25.548;2024-01-15T18:35:40;4.79;51.93
77467;DHT22;66564;42.482;25.548;2024-01-15T18:38:06;4.81;51.89
77467;DHT22;66564;42.482;25.548;2024-01-15T18:40:31;4.79;52.88
77467;DHT22;66564;42.482;25.548;2024-01-15T18:43:00;4.74;54.17
77467;DHT22;66564;42.482;25.548;2024-01-15T18:45:27;4.74;54.37
